sensor_id;sensor_type;location;lat;lon;timestamp;P1;durP1;ratioP1;P2;durP2;ratioP2
31746;SDS011;18319;48.974;8.462;2023-05-08T00:01:08;6.05;;;5.57;;
31746;SDS011;18319;48.974;8.462;2023-05-08T00:03:35;6.00;;;5.60;;
31746;SDS011;18319;48.974;8.462;2023-05-08T00:06:02;5.57;;;5.10;;
31746;SDS011;18319;48.974;8.462;2023-05-08T00:08:31;6.30;;;5.32;;
31746;SDS011;18319;48.974;8.462;2023-05-08T00:10:57;6.28;;;5.88;;
31746;SDS011;18319;48.974;8.462;2023-05-08T00:13:24;6.95;;;6.35;;
31746;SDS011;18319;48.974;8.462;2023-05-08T00:15:51;7.50;;;5.38;;
31746;SDS011;18319;48.974;8.462;2023-05-08T00:18:18;5.28;;;4.97;;
31746;SDS011;18319;48.974;8.462;2023-05-08T00:20:45;5.28;;;4.85;;
31746;SDS011;18319;48.974;8.462;2023-05-08T00:23:11;5.40;;;5.00;;
31746;SDS011;18319;48.974;8.462;2023-05-08T00:25:39;5.38;;;4.88;;
31746;SDS011;18319;48.974;8.462;2023-05-08T00:28:06;6.22;;;5.68;;
31746;SDS011;18319;48.974;8.462;2023-05-08T00:30:33;5.28;;;4.95;;
31746;SDS011;18319;48.974;8.462;2023-05-08T00:33:00;4.70;;;4.30;;
31746;SDS011;18319;48.974;8.462;2023-05-08T00:35:29;4.80;;;4.53;;
31746;SDS011;18319;48.974;8.462;2023-05-08T00:37:56;4.78;;;4.35;;
31746;SDS011;18319;48.974;8.462;2023-05-08T00:40:23;6.57;;;5.50;;
31746;SDS011;18319;48.974;8.462;2023-05-08T00:42:51;5.95;;;5.13;;
31746;SDS011;18319;48.974;8.462;2023-05-08T00:45:18;5.38;;;4.75;;
31746;SDS011;18319;48.974;8.462;2023-05-08T00:47:45;5.93;;;5.43;;
31746;SDS011;18319;48.974;8.462;2023-05-08T00:50:12;8.27;;;6.50;;
31746;SDS011;18319;48.974;8.462;2023-05-08T00:52:39;6.10;;;5.70;;
31746;SDS011;18319;48.974;8.462;2023-05-08T00:55:06;7.30;;;6.63;;
31746;SDS011;18319;48.974;8.462;2023-05-08T00:57:33;10.25;;;6.70;;
31746;SDS011;18319;48.974;8.462;2023-05-08T01:00:03;7.32;;;6.60;;
31746;SDS011;18319;48.974;8.462;2023-05-08T01:02:31;6.80;;;6.15;;
31746;SDS011;18319;48.974;8.462;2023-05-08T01:05:00;7.30;;;6.63;;
31746;SDS011;18319;48.974;8.462;2023-05-08T01:07:27;7.25;;;6.47;;
31746;SDS011;18319;48.974;8.462;2023-05-08T01:09:54;8.02;;;6.95;;
31746;SDS011;18319;48.974;8.462;2023-05-08T01:12:23;8.05;;;7.20;;
31746;SDS011;18319;48.974;8.462;2023-05-08T01:14:59;8.82;;;7.15;;
31746;SDS011;18319;48.974;8.462;2023-05-08T01:17:40;8.45;;;7.15;;
31746;SDS011;18319;48.974;8.462;2023-05-08T01:20:17;9.75;;;7.07;;
31746;SDS011;18319;48.974;8.462;2023-05-08T01:26:07;9.70;;;8.00;;
31746;SDS011;18319;48.974;8.462;2023-05-08T01:31:58;10.02;;;8.05;;
31746;SDS011;18319;48.974;8.462;2023-05-08T01:34:42;8.57;;;7.65;;
31746;SDS011;18319;48.974;8.462;2023-05-08T01:37:13;10.38;;;8.52;;
31746;SDS011;18319;48.974;8.462;2023-05-08T01:39:43;16.15;;;9.60;;
31746;SDS011;18319;48.974;8.462;2023-05-08T01:42:15;8.65;;;7.80;;
31746;SDS011;18319;48.974;8.462;2023-05-08T01:44:48;8.15;;;7.35;;
31746;SDS011;18319;48.974;8.462;2023-05-08T01:47:21;7.95;;;7.10;;
31746;SDS011;18319;48.974;8.462;2023-05-08T01:49:54;9.00;;;7.80;;
31746;SDS011;18319;48.974;8.462;2023-05-08T01:52:27;11.13;;;7.57;;
31746;SDS011;18319;48.974;8.462;2023-05-08T01:54:58;12.55;;;6.90;;
31746;SDS011;18319;48.974;8.462;2023-05-08T01:57:29;8.85;;;8.00;;
31746;SDS011;18319;48.974;8.462;2023-05-08T01:59:59;10.68;;;8.35;;
31746;SDS011;18319;48.974;8.462;2023-05-08T02:02:29;10.63;;;7.55;;
31746;SDS011;18319;48.974;8.462;2023-05-08T02:05:00;8.60;;;7.80;;
31746;SDS011;18319;48.974;8.462;2023-05-08T02:07:29;8.73;;;7.93;;
31746;SDS011;18319;48.974;8.462;2023-05-08T02:09:59;9.02;;;8.25;;
31746;SDS011;18319;48.974;8.462;2023-05-08T02:12:28;11.35;;;9.52;;
31746;SDS011;18319;48.974;8.462;2023-05-08T02:14:56;12.20;;;8.63;;
31746;SDS011;18319;48.974;8.462;2023-05-08T02:17:25;10.90;;;9.18;;
31746;SDS011;18319;48.974;8.462;2023-05-08T02:19:54;10.15;;;9.15;;
31746;SDS011;18319;48.974;8.462;2023-05-08T02:22:23;8.77;;;8.07;;
31746;SDS011;18319;48.974;8.462;2023-05-08T02:24:51;10.65;;;9.48;;
31746;SDS011;18319;48.974;8.462;2023-05-08T02:27:20;9.48;;;8.57;;
31746;SDS011;18319;48.974;8.462;2023-05-08T02:29:48;9.90;;;9.07;;
31746;SDS011;18319;48.974;8.462;2023-05-08T02:32:17;13.98;;;9.88;;
31746;SDS011;18319;48.974;8.462;2023-05-08T02:34:46;11.25;;;10.05;;
31746;SDS011;18319;48.974;8.462;2023-05-08T02:37:15;13.52;;;10.25;;
31746;SDS011;18319;48.974;8.462;2023-05-08T02:39:44;12.35;;;10.05;;
31746;SDS011;18319;48.974;8.462;2023-05-08T02:42:13;10.32;;;9.32;;
31746;SDS011;18319;48.974;8.462;2023-05-08T02:44:40;8.82;;;8.05;;
31746;SDS011;18319;48.974;8.462;2023-05-08T02:47:10;9.98;;;8.45;;
31746;SDS011;18319;48.974;8.462;2023-05-08T02:49:45;8.23;;;7.55;;
31746;SDS011;18319;48.974;8.462;2023-05-08T02:52:21;12.13;;;9.13;;
31746;SDS011;18319;48.974;8.462;2023-05-08T02:54:54;9.82;;;8.55;;
31746;SDS011;18319;48.974;8.462;2023-05-08T02:57:27;10.27;;;9.27;;
31746;SDS011;18319;48.974;8.462;2023-05-08T02:59:59;9.48;;;8.57;;
31746;SDS011;18319;48.974;8.462;2023-05-08T03:02:31;10.13;;;8.88;;
31746;SDS011;18319;48.974;8.462;2023-05-08T03:05:04;10.02;;;8.85;;
31746;SDS011;18319;48.974;8.462;2023-05-08T03:07:37;10.07;;;9.07;;
31746;SDS011;18319;48.974;8.462;2023-05-08T03:10:09;10.95;;;8.93;;
31746;SDS011;18319;48.974;8.462;2023-05-08T03:12:40;9.60;;;8.68;;
31746;SDS011;18319;48.974;8.462;2023-05-08T03:15:11;9.82;;;8.82;;
31746;SDS011;18319;48.974;8.462;2023-05-08T03:17:44;10.40;;;8.82;;
31746;SDS011;18319;48.974;8.462;2023-05-08T03:20:13;12.65;;;9.70;;
31746;SDS011;18319;48.974;8.462;2023-05-08T03:22:44;9.35;;;8.32;;
31746;SDS011;18319;48.974;8.462;2023-05-08T03:25:13;10.50;;;9.45;;
31746;SDS011;18319;48.974;8.462;2023-05-08T03:27:42;10.60;;;9.52;;
31746;SDS011;18319;48.974;8.462;2023-05-08T03:30:10;9.82;;;8.55;;
31746;SDS011;18319;48.974;8.462;2023-05-08T03:32:37;12.15;;;9.82;;
31746;SDS011;18319;48.974;8.462;2023-05-08T03:35:05;11.90;;;10.15;;
31746;SDS011;18319;48.974;8.462;2023-05-08T03:37:33;30.95;;;10.60;;
31746;SDS011;18319;48.974;8.462;2023-05-08T03:40:02;11.38;;;10.20;;
31746;SDS011;18319;48.974;8.462;2023-05-08T03:42:29;11.85;;;10.15;;
31746;SDS011;18319;48.974;8.462;2023-05-08T03:44:56;13.40;;;11.45;;
31746;SDS011;18319;48.974;8.462;2023-05-08T03:47:24;13.52;;;10.20;;
31746;SDS011;18319;48.974;8.462;2023-05-08T03:49:52;10.88;;;9.05;;
31746;SDS011;18319;48.974;8.462;2023-05-08T03:52:20;13.00;;;10.67;;
31746;SDS011;18319;48.974;8.462;2023-05-08T03:54:46;12.85;;;11.00;;
31746;SDS011;18319;48.974;8.462;2023-05-08T03:57:15;14.10;;;12.30;;
31746;SDS011;18319;48.974;8.462;2023-05-08T03:59:43;13.27;;;10.65;;
31746;SDS011;18319;48.974;8.462;2023-05-08T04:02:17;14.93;;;10.52;;
31746;SDS011;18319;48.974;8.462;2023-05-08T04:04:51;14.30;;;11.20;;
31746;SDS011;18319;48.974;8.462;2023-05-08T04:07:26;11.98;;;10.70;;
31746;SDS011;18319;48.974;8.462;2023-05-08T04:09:58;14.75;;;10.23;;
31746;SDS011;18319;48.974;8.462;2023-05-08T04:12:32;12.13;;;10.93;;
31746;SDS011;18319;48.974;8.462;2023-05-08T04:15:06;12.55;;;10.90;;
31746;SDS011;18319;48.974;8.462;2023-05-08T04:17:38;18.65;;;10.90;;
31746;SDS011;18319;48.974;8.462;2023-05-08T04:20:08;12.38;;;11.13;;
31746;SDS011;18319;48.974;8.462;2023-05-08T04:22:37;12.93;;;11.65;;
31746;SDS011;18319;48.974;8.462;2023-05-08T04:25:05;13.10;;;11.80;;
31746;SDS011;18319;48.974;8.462;2023-05-08T04:27:35;13.25;;;11.27;;
31746;SDS011;18319;48.974;8.462;2023-05-08T04:30:03;15.82;;;11.10;;
31746;SDS011;18319;48.974;8.462;2023-05-08T04:32:31;12.95;;;11.60;;
31746;SDS011;18319;48.974;8.462;2023-05-08T04:34:59;12.48;;;11.15;;
31746;SDS011;18319;48.974;8.462;2023-05-08T04:37:26;15.23;;;10.23;;
31746;SDS011;18319;48.974;8.462;2023-05-08T04:39:55;14.90;;;11.55;;
31746;SDS011;18319;48.974;8.462;2023-05-08T04:42:22;12.48;;;11.10;;
31746;SDS011;18319;48.974;8.462;2023-05-08T04:44:51;14.05;;;11.02;;
31746;SDS011;18319;48.974;8.462;2023-05-08T04:47:19;12.73;;;10.32;;
31746;SDS011;18319;48.974;8.462;2023-05-08T04:49:46;14.10;;;10.10;;
31746;SDS011;18319;48.974;8.462;2023-05-08T04:52:13;11.48;;;10.32;;
31746;SDS011;18319;48.974;8.462;2023-05-08T04:54:39;12.25;;;10.30;;
31746;SDS011;18319;48.974;8.462;2023-05-08T04:57:06;11.10;;;9.35;;
31746;SDS011;18319;48.974;8.462;2023-05-08T04:59:33;11.48;;;10.30;;
31746;SDS011;18319;48.974;8.462;2023-05-08T05:02:01;11.27;;;10.23;;
31746;SDS011;18319;48.974;8.462;2023-05-08T05:04:30;12.73;;;10.35;;
31746;SDS011;18319;48.974;8.462;2023-05-08T05:06:56;10.93;;;9.50;;
31746;SDS011;18319;48.974;8.462;2023-05-08T05:09:23;12.75;;;11.13;;
31746;SDS011;18319;48.974;8.462;2023-05-08T05:11:50;11.32;;;10.15;;
31746;SDS011;18319;48.974;8.462;2023-05-08T05:14:16;10.50;;;9.55;;
31746;SDS011;18319;48.974;8.462;2023-05-08T05:16:43;9.90;;;8.95;;
31746;SDS011;18319;48.974;8.462;2023-05-08T05:19:12;9.40;;;8.60;;
31746;SDS011;18319;48.974;8.462;2023-05-08T05:21:39;8.73;;;7.90;;
31746;SDS011;18319;48.974;8.462;2023-05-08T05:24:06;8.27;;;7.57;;
31746;SDS011;18319;48.974;8.462;2023-05-08T05:26:33;9.68;;;8.68;;
31746;SDS011;18319;48.974;8.462;2023-05-08T05:29:00;9.00;;;7.88;;
31746;SDS011;18319;48.974;8.462;2023-05-08T05:31:27;8.95;;;8.05;;
31746;SDS011;18319;48.974;8.462;2023-05-08T05:33:54;9.07;;;8.20;;
31746;SDS011;18319;48.974;8.462;2023-05-08T05:36:22;9.65;;;8.85;;
31746;SDS011;18319;48.974;8.462;2023-05-08T05:38:49;11.88;;;9.98;;
31746;SDS011;18319;48.974;8.462;2023-05-08T05:41:16;11.35;;;10.07;;
31746;SDS011;18319;48.974;8.462;2023-05-08T05:43:43;10.38;;;9.32;;
31746;SDS011;18319;48.974;8.462;2023-05-08T05:46:10;10.70;;;9.43;;
31746;SDS011;18319;48.974;8.462;2023-05-08T05:48:36;12.57;;;9.48;;
31746;SDS011;18319;48.974;8.462;2023-05-08T05:51:03;10.88;;;8.55;;
31746;SDS011;18319;48.974;8.462;2023-05-08T05:53:32;10.68;;;9.57;;
31746;SDS011;18319;48.974;8.462;2023-05-08T05:55:59;12.48;;;10.73;;
31746;SDS011;18319;48.974;8.462;2023-05-08T05:58:25;13.75;;;10.63;;
31746;SDS011;18319;48.974;8.462;2023-05-08T06:00:53;12.00;;;9.95;;
31746;SDS011;18319;48.974;8.462;2023-05-08T06:03:20;11.95;;;9.85;;
31746;SDS011;18319;48.974;8.462;2023-05-08T06:05:46;11.55;;;9.02;;
31746;SDS011;18319;48.974;8.462;2023-05-08T06:08:13;11.60;;;10.13;;
31746;SDS011;18319;48.974;8.462;2023-05-08T06:10:43;12.25;;;10.45;;
31746;SDS011;18319;48.974;8.462;2023-05-08T06:13:10;11.20;;;9.25;;
31746;SDS011;18319;48.974;8.462;2023-05-08T06:15:36;9.52;;;8.25;;
31746;SDS011;18319;48.974;8.462;2023-05-08T06:18:03;9.07;;;8.18;;
31746;SDS011;18319;48.974;8.462;2023-05-08T06:20:30;10.57;;;8.45;;
31746;SDS011;18319;48.974;8.462;2023-05-08T06:22:57;9.40;;;7.60;;
31746;SDS011;18319;48.974;8.462;2023-05-08T06:25:24;9.25;;;8.35;;
31746;SDS011;18319;48.974;8.462;2023-05-08T06:27:53;12.35;;;8.27;;
31746;SDS011;18319;48.974;8.462;2023-05-08T06:30:20;9.77;;;8.32;;
31746;SDS011;18319;48.974;8.462;2023-05-08T06:32:47;12.80;;;8.85;;
31746;SDS011;18319;48.974;8.462;2023-05-08T06:35:14;12.98;;;9.45;;
31746;SDS011;18319;48.974;8.462;2023-05-08T06:37:42;10.07;;;8.55;;
31746;SDS011;18319;48.974;8.462;2023-05-08T06:40:09;9.85;;;8.15;;
31746;SDS011;18319;48.974;8.462;2023-05-08T06:42:37;11.10;;;8.38;;
31746;SDS011;18319;48.974;8.462;2023-05-08T06:45:07;10.35;;;8.73;;
31746;SDS011;18319;48.974;8.462;2023-05-08T06:47:34;11.23;;;8.63;;
31746;SDS011;18319;48.974;8.462;2023-05-08T06:50:01;9.32;;;8.15;;
31746;SDS011;18319;48.974;8.462;2023-05-08T06:52:28;12.15;;;9.13;;
31746;SDS011;18319;48.974;8.462;2023-05-08T06:54:55;12.73;;;10.68;;
31746;SDS011;18319;48.974;8.462;2023-05-08T06:57:21;12.80;;;9.75;;
31746;SDS011;18319;48.974;8.462;2023-05-08T06:59:51;12.05;;;9.73;;
31746;SDS011;18319;48.974;8.462;2023-05-08T07:02:19;11.13;;;9.90;;
31746;SDS011;18319;48.974;8.462;2023-05-08T07:04:45;13.13;;;9.77;;
31746;SDS011;18319;48.974;8.462;2023-05-08T07:07:12;12.73;;;10.02;;
31746;SDS011;18319;48.974;8.462;2023-05-08T07:09:39;13.48;;;9.13;;
31746;SDS011;18319;48.974;8.462;2023-05-08T07:12:06;12.85;;;10.13;;
31746;SDS011;18319;48.974;8.462;2023-05-08T07:14:33;11.65;;;8.85;;
31746;SDS011;18319;48.974;8.462;2023-05-08T07:17:01;11.55;;;8.65;;
31746;SDS011;18319;48.974;8.462;2023-05-08T07:19:32;11.02;;;9.93;;
31746;SDS011;18319;48.974;8.462;2023-05-08T07:21:59;10.63;;;8.77;;
31746;SDS011;18319;48.974;8.462;2023-05-08T07:24:25;12.00;;;9.00;;
31746;SDS011;18319;48.974;8.462;2023-05-08T07:26:52;10.25;;;8.02;;
31746;SDS011;18319;48.974;8.462;2023-05-08T07:29:19;10.82;;;8.70;;
31746;SDS011;18319;48.974;8.462;2023-05-08T07:31:46;8.88;;;7.97;;
31746;SDS011;18319;48.974;8.462;2023-05-08T07:34:13;12.82;;;8.23;;
31746;SDS011;18319;48.974;8.462;2023-05-08T07:36:41;10.85;;;8.30;;
31746;SDS011;18319;48.974;8.462;2023-05-08T07:39:08;8.88;;;7.90;;
31746;SDS011;18319;48.974;8.462;2023-05-08T07:41:35;17.25;;;9.77;;
31746;SDS011;18319;48.974;8.462;2023-05-08T07:44:04;10.02;;;8.40;;
31746;SDS011;18319;48.974;8.462;2023-05-08T07:46:31;13.27;;;9.57;;
31746;SDS011;18319;48.974;8.462;2023-05-08T07:48:58;13.20;;;9.98;;
31746;SDS011;18319;48.974;8.462;2023-05-08T07:51:25;14.35;;;10.18;;
31746;SDS011;18319;48.974;8.462;2023-05-08T07:53:53;14.18;;;10.52;;
31746;SDS011;18319;48.974;8.462;2023-05-08T07:56:20;15.65;;;10.00;;
31746;SDS011;18319;48.974;8.462;2023-05-08T07:58:47;12.50;;;9.57;;
31746;SDS011;18319;48.974;8.462;2023-05-08T08:01:14;16.90;;;11.45;;
31746;SDS011;18319;48.974;8.462;2023-05-08T08:03:42;17.52;;;10.80;;
31746;SDS011;18319;48.974;8.462;2023-05-08T08:06:09;14.43;;;9.05;;
31746;SDS011;18319;48.974;8.462;2023-05-08T08:08:36;18.50;;;10.18;;
31746;SDS011;18319;48.974;8.462;2023-05-08T08:11:04;17.15;;;11.20;;
31746;SDS011;18319;48.974;8.462;2023-05-08T08:13:31;14.15;;;10.38;;
31746;SDS011;18319;48.974;8.462;2023-05-08T08:15:58;15.50;;;11.38;;
31746;SDS011;18319;48.974;8.462;2023-05-08T08:18:25;12.25;;;9.23;;
31746;SDS011;18319;48.974;8.462;2023-05-08T08:20:51;14.65;;;10.02;;
31746;SDS011;18319;48.974;8.462;2023-05-08T08:23:18;14.70;;;10.93;;
31746;SDS011;18319;48.974;8.462;2023-05-08T08:25:45;14.35;;;9.65;;
31746;SDS011;18319;48.974;8.462;2023-05-08T08:28:13;16.98;;;12.18;;
31746;SDS011;18319;48.974;8.462;2023-05-08T08:30:42;16.52;;;10.93;;
31746;SDS011;18319;48.974;8.462;2023-05-08T08:33:08;13.82;;;9.98;;
31746;SDS011;18319;48.974;8.462;2023-05-08T08:35:35;13.73;;;9.98;;
31746;SDS011;18319;48.974;8.462;2023-05-08T08:38:02;17.65;;;10.95;;
31746;SDS011;18319;48.974;8.462;2023-05-08T08:40:29;23.05;;;12.57;;
31746;SDS011;18319;48.974;8.462;2023-05-08T08:42:55;19.48;;;13.25;;
31746;SDS011;18319;48.974;8.462;2023-05-08T08:45:24;20.75;;;12.90;;
31746;SDS011;18319;48.974;8.462;2023-05-08T08:47:50;20.92;;;13.70;;
31746;SDS011;18319;48.974;8.462;2023-05-08T08:50:18;20.35;;;13.75;;
31746;SDS011;18319;48.974;8.462;2023-05-08T08:52:46;26.98;;;16.25;;
31746;SDS011;18319;48.974;8.462;2023-05-08T08:55:21;19.73;;;14.13;;
31746;SDS011;18319;48.974;8.462;2023-05-08T08:57:51;20.92;;;14.77;;
31746;SDS011;18319;48.974;8.462;2023-05-08T09:00:27;18.88;;;13.20;;
31746;SDS011;18319;48.974;8.462;2023-05-08T09:02:57;24.70;;;15.85;;
31746;SDS011;18319;48.974;8.462;2023-05-08T09:05:23;23.73;;;15.07;;
31746;SDS011;18319;48.974;8.462;2023-05-08T09:07:52;19.38;;;14.30;;
31746;SDS011;18319;48.974;8.462;2023-05-08T09:10:20;22.58;;;15.57;;
31746;SDS011;18319;48.974;8.462;2023-05-08T09:12:48;18.27;;;14.02;;
31746;SDS011;18319;48.974;8.462;2023-05-08T09:15:15;17.83;;;13.73;;
31746;SDS011;18319;48.974;8.462;2023-05-08T09:17:43;20.98;;;13.85;;
31746;SDS011;18319;48.974;8.462;2023-05-08T09:20:11;22.83;;;14.57;;
31746;SDS011;18319;48.974;8.462;2023-05-08T09:22:40;23.83;;;15.40;;
31746;SDS011;18319;48.974;8.462;2023-05-08T09:25:08;24.55;;;15.75;;
31746;SDS011;18319;48.974;8.462;2023-05-08T09:27:35;22.52;;;15.02;;
31746;SDS011;18319;48.974;8.462;2023-05-08T09:30:03;21.52;;;15.13;;
31746;SDS011;18319;48.974;8.462;2023-05-08T09:32:31;22.55;;;14.77;;
31746;SDS011;18319;48.974;8.462;2023-05-08T09:35:00;19.13;;;14.30;;
31746;SDS011;18319;48.974;8.462;2023-05-08T09:37:27;21.80;;;15.60;;
31746;SDS011;18319;48.974;8.462;2023-05-08T09:39:58;20.20;;;15.18;;
31746;SDS011;18319;48.974;8.462;2023-05-08T09:42:38;20.42;;;13.93;;
31746;SDS011;18319;48.974;8.462;2023-05-08T09:45:06;19.70;;;14.77;;
31746;SDS011;18319;48.974;8.462;2023-05-08T09:47:33;18.73;;;13.75;;
31746;SDS011;18319;48.974;8.462;2023-05-08T09:50:05;22.98;;;15.23;;
31746;SDS011;18319;48.974;8.462;2023-05-08T09:52:33;20.75;;;14.27;;
31746;SDS011;18319;48.974;8.462;2023-05-08T09:55:02;25.05;;;15.35;;
31746;SDS011;18319;48.974;8.462;2023-05-08T09:57:30;20.70;;;14.38;;
31746;SDS011;18319;48.974;8.462;2023-05-08T10:00:02;21.33;;;14.25;;
31746;SDS011;18319;48.974;8.462;2023-05-08T10:02:31;21.33;;;15.15;;
31746;SDS011;18319;48.974;8.462;2023-05-08T10:04:58;19.10;;;13.77;;
31746;SDS011;18319;48.974;8.462;2023-05-08T10:07:30;23.48;;;14.55;;
31746;SDS011;18319;48.974;8.462;2023-05-08T10:09:58;23.90;;;14.82;;
31746;SDS011;18319;48.974;8.462;2023-05-08T10:12:27;21.90;;;15.18;;
31746;SDS011;18319;48.974;8.462;2023-05-08T10:14:54;20.80;;;14.27;;
31746;SDS011;18319;48.974;8.462;2023-05-08T10:17:25;20.58;;;14.48;;
31746;SDS011;18319;48.974;8.462;2023-05-08T10:19:57;19.60;;;13.90;;
31746;SDS011;18319;48.974;8.462;2023-05-08T10:22:26;19.60;;;13.93;;
31746;SDS011;18319;48.974;8.462;2023-05-08T10:24:56;17.83;;;13.90;;
31746;SDS011;18319;48.974;8.462;2023-05-08T10:27:29;17.23;;;14.02;;
31746;SDS011;18319;48.974;8.462;2023-05-08T10:30:00;23.42;;;15.23;;
31746;SDS011;18319;48.974;8.462;2023-05-08T10:32:30;23.45;;;15.90;;
31746;SDS011;18319;48.974;8.462;2023-05-08T10:35:04;20.67;;;15.23;;
31746;SDS011;18319;48.974;8.462;2023-05-08T10:37:34;22.50;;;16.92;;
31746;SDS011;18319;48.974;8.462;2023-05-08T10:40:04;26.02;;;17.42;;
31746;SDS011;18319;48.974;8.462;2023-05-08T10:42:32;22.08;;;16.15;;
31746;SDS011;18319;48.974;8.462;2023-05-08T10:45:00;23.65;;;16.13;;
31746;SDS011;18319;48.974;8.462;2023-05-08T10:47:30;24.13;;;16.98;;
31746;SDS011;18319;48.974;8.462;2023-05-08T10:50:05;22.40;;;16.88;;
31746;SDS011;18319;48.974;8.462;2023-05-08T10:52:42;30.15;;;16.98;;
31746;SDS011;18319;48.974;8.462;2023-05-08T10:55:21;23.30;;;16.95;;
31746;SDS011;18319;48.974;8.462;2023-05-08T10:58:02;22.55;;;17.65;;
31746;SDS011;18319;48.974;8.462;2023-05-08T11:00:31;25.13;;;18.58;;
31746;SDS011;18319;48.974;8.462;2023-05-08T11:03:18;21.90;;;15.57;;
31746;SDS011;18319;48.974;8.462;2023-05-08T11:05:47;18.30;;;15.48;;
31746;SDS011;18319;48.974;8.462;2023-05-08T11:08:14;17.30;;;13.88;;
31746;SDS011;18319;48.974;8.462;2023-05-08T11:10:45;19.00;;;13.77;;
31746;SDS011;18319;48.974;8.462;2023-05-08T11:13:17;14.40;;;11.23;;
31746;SDS011;18319;48.974;8.462;2023-05-08T11:15:48;14.70;;;11.32;;
31746;SDS011;18319;48.974;8.462;2023-05-08T11:18:16;13.10;;;11.73;;
31746;SDS011;18319;48.974;8.462;2023-05-08T11:20:53;14.85;;;12.48;;
31746;SDS011;18319;48.974;8.462;2023-05-08T11:23:22;12.25;;;11.07;;
31746;SDS011;18319;48.974;8.462;2023-05-08T11:25:58;11.25;;;10.05;;
31746;SDS011;18319;48.974;8.462;2023-05-08T11:28:26;12.93;;;10.57;;
31746;SDS011;18319;48.974;8.462;2023-05-08T11:30:56;10.25;;;9.35;;
31746;SDS011;18319;48.974;8.462;2023-05-08T11:33:28;9.85;;;8.88;;
31746;SDS011;18319;48.974;8.462;2023-05-08T11:35:56;10.98;;;10.05;;
31746;SDS011;18319;48.974;8.462;2023-05-08T11:38:28;9.48;;;8.68;;
31746;SDS011;18319;48.974;8.462;2023-05-08T11:40:57;9.48;;;8.68;;
31746;SDS011;18319;48.974;8.462;2023-05-08T11:43:30;9.13;;;8.25;;
31746;SDS011;18319;48.974;8.462;2023-05-08T11:46:16;8.82;;;8.02;;
31746;SDS011;18319;48.974;8.462;2023-05-08T11:48:45;8.10;;;7.45;;
31746;SDS011;18319;48.974;8.462;2023-05-08T11:51:12;8.07;;;7.30;;
31746;SDS011;18319;48.974;8.462;2023-05-08T11:53:42;7.35;;;6.68;;
31746;SDS011;18319;48.974;8.462;2023-05-08T11:56:11;7.10;;;6.47;;
31746;SDS011;18319;48.974;8.462;2023-05-08T11:58:38;6.63;;;6.13;;
31746;SDS011;18319;48.974;8.462;2023-05-08T12:01:04;7.50;;;6.95;;
31746;SDS011;18319;48.974;8.462;2023-05-08T12:03:31;6.63;;;6.13;;
31746;SDS011;18319;48.974;8.462;2023-05-08T12:05:58;6.80;;;6.30;;
31746;SDS011;18319;48.974;8.462;2023-05-08T12:08:25;5.65;;;5.22;;
31746;SDS011;18319;48.974;8.462;2023-05-08T12:10:53;5.95;;;5.45;;
31746;SDS011;18319;48.974;8.462;2023-05-08T12:13:23;5.20;;;4.70;;
31746;SDS011;18319;48.974;8.462;2023-05-08T12:15:51;4.55;;;4.15;;
31746;SDS011;18319;48.974;8.462;2023-05-08T12:18:19;4.15;;;3.85;;
31746;SDS011;18319;48.974;8.462;2023-05-08T12:20:49;3.47;;;3.17;;
31746;SDS011;18319;48.974;8.462;2023-05-08T12:23:17;3.08;;;2.88;;
31746;SDS011;18319;48.974;8.462;2023-05-08T12:25:44;3.50;;;3.20;;
31746;SDS011;18319;48.974;8.462;2023-05-08T12:28:11;3.03;;;2.92;;
31746;SDS011;18319;48.974;8.462;2023-05-08T12:30:39;4.90;;;3.40;;
31746;SDS011;18319;48.974;8.462;2023-05-08T12:33:07;4.07;;;3.78;;
31746;SDS011;18319;48.974;8.462;2023-05-08T12:35:35;4.05;;;3.65;;
31746;SDS011;18319;48.974;8.462;2023-05-08T12:38:05;5.05;;;4.65;;
31746;SDS011;18319;48.974;8.462;2023-05-08T12:40:33;4.45;;;4.20;;
31746;SDS011;18319;48.974;8.462;2023-05-08T12:43:01;5.47;;;4.97;;
31746;SDS011;18319;48.974;8.462;2023-05-08T12:45:29;6.43;;;5.93;;
31746;SDS011;18319;48.974;8.462;2023-05-08T12:47:59;6.22;;;5.72;;
31746;SDS011;18319;48.974;8.462;2023-05-08T12:50:27;5.80;;;5.30;;
31746;SDS011;18319;48.974;8.462;2023-05-08T12:53:00;6.20;;;5.80;;
31746;SDS011;18319;48.974;8.462;2023-05-08T12:55:29;6.07;;;5.57;;
31746;SDS011;18319;48.974;8.462;2023-05-08T12:57:58;6.40;;;6.00;;
31746;SDS011;18319;48.974;8.462;2023-05-08T13:00:32;6.28;;;5.78;;
31746;SDS011;18319;48.974;8.462;2023-05-08T13:03:02;6.95;;;6.35;;
31746;SDS011;18319;48.974;8.462;2023-05-08T13:05:30;5.97;;;5.57;;
31746;SDS011;18319;48.974;8.462;2023-05-08T13:08:00;6.35;;;5.85;;
31746;SDS011;18319;48.974;8.462;2023-05-08T13:10:43;6.43;;;6.03;;
31746;SDS011;18319;48.974;8.462;2023-05-08T13:13:11;5.68;;;5.28;;
31746;SDS011;18319;48.974;8.462;2023-05-08T13:15:38;5.95;;;5.10;;
31746;SDS011;18319;48.974;8.462;2023-05-08T13:18:06;5.90;;;5.50;;
31746;SDS011;18319;48.974;8.462;2023-05-08T13:20:33;6.60;;;6.00;;
31746;SDS011;18319;48.974;8.462;2023-05-08T13:23:00;5.68;;;5.20;;
31746;SDS011;18319;48.974;8.462;2023-05-08T13:25:27;5.43;;;5.03;;
31746;SDS011;18319;48.974;8.462;2023-05-08T13:27:54;4.35;;;4.15;;
31746;SDS011;18319;48.974;8.462;2023-05-08T13:30:21;4.28;;;3.88;;
31746;SDS011;18319;48.974;8.462;2023-05-08T13:32:48;4.80;;;4.50;;
31746;SDS011;18319;48.974;8.462;2023-05-08T13:35:16;4.80;;;4.35;;
31746;SDS011;18319;48.974;8.462;2023-05-08T13:37:43;4.80;;;4.40;;
31746;SDS011;18319;48.974;8.462;2023-05-08T13:40:11;5.75;;;5.35;;
31746;SDS011;18319;48.974;8.462;2023-05-08T13:42:38;5.60;;;5.20;;
31746;SDS011;18319;48.974;8.462;2023-05-08T13:45:06;5.03;;;4.72;;
31746;SDS011;18319;48.974;8.462;2023-05-08T13:47:34;5.78;;;5.45;;
31746;SDS011;18319;48.974;8.462;2023-05-08T13:50:01;5.38;;;4.97;;
31746;SDS011;18319;48.974;8.462;2023-05-08T13:52:30;6.65;;;6.18;;
31746;SDS011;18319;48.974;8.462;2023-05-08T13:54:56;6.28;;;5.78;;
31746;SDS011;18319;48.974;8.462;2023-05-08T13:57:23;6.97;;;6.28;;
31746;SDS011;18319;48.974;8.462;2023-05-08T13:59:51;6.90;;;6.40;;
31746;SDS011;18319;48.974;8.462;2023-05-08T14:02:18;8.13;;;7.53;;
31746;SDS011;18319;48.974;8.462;2023-05-08T14:04:44;8.57;;;7.80;;
31746;SDS011;18319;48.974;8.462;2023-05-08T14:07:11;8.05;;;7.32;;
31746;SDS011;18319;48.974;8.462;2023-05-08T14:09:39;7.65;;;6.95;;
31746;SDS011;18319;48.974;8.462;2023-05-08T14:12:06;8.05;;;7.53;;
31746;SDS011;18319;48.974;8.462;2023-05-08T14:14:33;8.50;;;7.80;;
31746;SDS011;18319;48.974;8.462;2023-05-08T14:17:00;7.53;;;6.93;;
31746;SDS011;18319;48.974;8.462;2023-05-08T14:19:26;7.97;;;7.38;;
31746;SDS011;18319;48.974;8.462;2023-05-08T14:21:53;10.95;;;8.20;;
31746;SDS011;18319;48.974;8.462;2023-05-08T14:24:20;8.88;;;8.07;;
31746;SDS011;18319;48.974;8.462;2023-05-08T14:26:48;9.65;;;8.75;;
31746;SDS011;18319;48.974;8.462;2023-05-08T14:29:15;8.80;;;8.00;;
31746;SDS011;18319;48.974;8.462;2023-05-08T14:31:42;9.20;;;8.23;;
31746;SDS011;18319;48.974;8.462;2023-05-08T14:34:09;8.50;;;7.85;;
31746;SDS011;18319;48.974;8.462;2023-05-08T14:36:36;9.02;;;8.27;;
31746;SDS011;18319;48.974;8.462;2023-05-08T14:39:03;9.45;;;8.60;;
31746;SDS011;18319;48.974;8.462;2023-05-08T14:41:30;9.85;;;8.93;;
31746;SDS011;18319;48.974;8.462;2023-05-08T14:43:58;10.38;;;9.43;;
31746;SDS011;18319;48.974;8.462;2023-05-08T14:46:25;10.75;;;9.85;;
31746;SDS011;18319;48.974;8.462;2023-05-08T14:48:52;9.38;;;8.57;;
31746;SDS011;18319;48.974;8.462;2023-05-08T14:51:19;9.57;;;8.88;;